createdAt,value
2022-11-16T00:00:41.150Z,142.96
2022-11-16T00:02:48.415Z,142.37
2022-11-16T00:04:56.809Z,141.49
2022-11-16T00:07:03.526Z,140.04
2022-11-16T00:09:27.321Z,140.58
2022-11-16T00:11:33.145Z,140.57
2022-11-16T00:13:41.540Z,138.31
2022-11-16T00:15:58.676Z,142.29
2022-11-16T00:20:24.076Z,139.24
2022-11-16T00:22:30.779Z,140.59
2022-11-16T00:24:37.305Z,140.18
2022-11-16T00:26:43.388Z,136.63
2022-11-16T00:28:50.967Z,144.54
2022-11-16T00:31:02.675Z,146.54
2022-11-16T00:33:10.924Z,144.63
2022-11-16T00:35:17.608Z,140.26
2022-11-16T00:37:26.024Z,140.32
2022-11-16T00:39:31.895Z,136.66
2022-11-16T00:41:38.438Z,135.18
2022-11-16T00:43:44.342Z,134.39
2022-11-16T00:45:50.495Z,132.61
2022-11-16T00:48:00.467Z,133.71
2022-11-16T00:50:08.806Z,132.79
2022-11-16T00:52:14.514Z,130.35
2022-11-16T00:54:23.636Z,124.87
2022-11-16T00:56:29.578Z,127.68
2022-11-16T00:58:35.724Z,127.65
2022-11-16T01:00:47.487Z,126.29
2022-11-16T01:02:54.753Z,124.70
2022-11-16T01:05:00.812Z,119.89
2022-11-16T01:07:09.268Z,120.63
2022-11-16T01:09:15.054Z,120.47
2022-11-16T01:11:36.052Z,124.67
2022-11-16T01:13:42.635Z,125.14
2022-11-16T01:15:51.626Z,123.83
2022-11-16T01:18:00.084Z,127.69
2022-11-16T01:20:11.286Z,125.21
2022-11-16T01:22:17.033Z,119.84
2022-11-16T01:24:22.983Z,117.93
2022-11-16T01:26:32.490Z,118.69
2022-11-16T01:28:38.509Z,120.07
2022-11-16T01:30:51.510Z,117.48
2022-11-16T01:32:58.128Z,117.59
2022-11-16T01:35:07.173Z,119.51
2022-11-16T01:37:13.872Z,123.33
2022-11-16T01:39:22.307Z,120.46
2022-11-16T01:41:35.451Z,116.77
2022-11-16T01:44:01.902Z,118.36
2022-11-16T01:46:14.558Z,123.01
2022-11-16T01:48:29.028Z,121.58
2022-11-16T01:50:35.471Z,120.91
2022-11-16T01:52:50.636Z,119.79
2022-11-16T01:54:56.154Z,122.38
2022-11-16T01:57:14.604Z,122.14
2022-11-16T01:59:29.647Z,120.91
2022-11-16T02:01:36.492Z,118.59
2022-11-16T02:03:44.463Z,122.38
2022-11-16T02:06:17.939Z,120.71
2022-11-16T02:09:04.862Z,120.97
2022-11-16T02:11:48.262Z,118.84
2022-11-16T02:14:13.908Z,124.14
2022-11-16T02:16:38.814Z,122.79
2022-11-16T02:19:02.895Z,124.23
2022-11-16T02:21:32.902Z,124.87
2022-11-16T02:24:22.838Z,121.38
2022-11-16T02:27:14.408Z,124.21
2022-11-16T02:29:35.646Z,114.88
2022-11-16T02:31:52.568Z,117.38
2022-11-16T02:34:03.704Z,114.59
2022-11-16T02:36:18.627Z,114.33
2022-11-16T02:38:32.828Z,116.89
2022-11-16T02:40:47.963Z,114.92
2022-11-16T02:43:10.281Z,115.35
2022-11-16T02:45:27.416Z,114.59
2022-11-16T02:47:40.025Z,114.44
2022-11-16T02:49:58.611Z,116.02
2022-11-16T02:52:07.231Z,114.49
2022-11-16T02:54:19.641Z,114.25
2022-11-16T02:56:31.521Z,115.66
2022-11-16T02:58:37.300Z,115.98
2022-11-16T03:00:59.228Z,117.96
2022-11-16T03:03:28.700Z,115.67
2022-11-16T03:05:43.546Z,112.06
2022-11-16T03:08:12.048Z,107.18
2022-11-16T03:10:35.489Z,107.23
2022-11-16T03:12:46.200Z,109.15
2022-11-16T03:14:59.745Z,101.29
2022-11-16T03:17:20.817Z,100.47
